Lanham, MD (20706)

9:09 PM EST on December 24, 2014 (GMT -0500)
GreenSpring | Change Station
CLOSE
Current Station
Personal Weather Station
Location: Greenbelt, MD
Elevation: 177 ft
Nearby Weather Stations

Elev 177 ft 38.98 °N, 76.87 °W | Updated 4 minutes ago

Fog
Fog
59.2 °F
Feels Like 59.2 °F
N
2.2
Wind Variable Wind from ENE

Today
High -- | Low -- °F
--% Chance of Precip.
Yesterday
High -- | Low -- °F
Precip. -- in
7:23 AM 4:50 PM
Waxing Crescent, 12% visible
Pressure 29.59 in
Visibility 3.0 miles
Clouds Overcast 400 ft
Dew Point 59 °F
Humidity 98%
Rainfall 1.19 in
Snow Depth Not available.
UV 0 out of 12
Pollen .10 out of 12
Air Quality Not available.
Flu Activity Not available.
METAR KCGS 250145Z AUTO 00000KT 3SM OVC004 11/11 A2959 RMK AO1

More Conditions Fewer Conditions

Pressure 29.59 in
Visibility 3.0 miles
Clouds Overcast 400 ft
Dew Point 59 °F
Humidity 98%
Rainfall 1.19 in
Snow Depth Not available.
UV 0 out of 12
Pollen .10 out of 12
Air Quality Not available.
Flu Activity Not available.
METAR KCGS 250145Z AUTO 00000KT 3SM OVC004 11/11 A2959 RMK AO1

More Conditions Fewer Conditions

Nowcast | as of 9:03 PM EST on December 24, 2014

Areas of fog with patchy dense fog will continue through the early overnight hours. Visibilities will be reduced to 2 mile at times...with isolated areas dropping to a half mile or less. The fog is expected to dissipate later tonight as a cold front moves through. Motorists are asked to exercise caution for rapidly changing visibilities.

×

10-Day Weather Forecast

Almanac

Astronomy

Dec. 24, 2014 Rise Set
Actual Time
Civil Twilight
Nautical Twilight
Astronomical Twilight
Moon
Length of Visible Light
Length of Day
Tomorrow will be .
, % of the Moon is Illuminated

Today's Extremes

State Highs State Lows

Community

WunderPhotos

Upload Photos

1,780,208 photos uploaded!

WunderBlogs® & News

Nearby

Air Quality

  Air Quality AQ Index Pollutant
Not available.

Snow Depth

Station Depth Elevation

Earthquake Activity

City Distance Mag. Time & Date
Minimum magnitude displayed is 2.5.

Coastal Water Temperatures

Place Temperature

Nearby Weather Stations